createdAt,value
2019-01-09T00:01:20.022Z,1.00
2019-01-09T00:03:46.663Z,1.00
2019-01-09T00:06:13.204Z,1.00
2019-01-09T00:08:39.788Z,1.00
2019-01-09T00:11:06.281Z,1.10
2019-01-09T00:13:32.847Z,1.10
2019-01-09T00:15:59.786Z,1.10
2019-01-09T00:18:26.387Z,1.10
2019-01-09T00:20:53.002Z,1.10
2019-01-09T00:23:19.586Z,1.10
2019-01-09T00:25:46.078Z,1.00
2019-01-09T00:28:12.586Z,1.00
2019-01-09T00:30:39.174Z,1.00
2019-01-09T00:33:05.695Z,1.00
2019-01-09T00:35:37.212Z,1.00
2019-01-09T00:38:00.703Z,1.00
2019-01-09T00:40:27.210Z,1.00
2019-01-09T00:42:53.687Z,1.00
2019-01-09T00:45:20.400Z,1.00
2019-01-09T00:47:46.990Z,1.00
2019-01-09T00:50:13.589Z,0.90
2019-01-09T00:52:40.258Z,0.90
2019-01-09T00:55:08.598Z,1.00
2019-01-09T00:57:35.261Z,0.90
2019-01-09T01:00:04.466Z,1.00
2019-01-09T01:02:34.552Z,1.00
2019-01-09T01:05:31.879Z,1.00
2019-01-09T01:08:35.692Z,1.00
2019-01-09T01:11:18.035Z,0.90
2019-01-09T01:14:18.272Z,0.90
2019-01-09T01:17:12.473Z,0.90
2019-01-09T01:20:05.607Z,1.00
2019-01-09T01:22:47.990Z,0.90
2019-01-09T01:25:40.814Z,1.00
2019-01-09T01:28:16.939Z,1.00
2019-01-09T01:31:20.704Z,1.00
2019-01-09T01:33:50.919Z,1.10
2019-01-09T01:36:37.672Z,1.00
2019-01-09T01:39:27.946Z,1.10
2019-01-09T01:42:04.190Z,1.10
2019-01-09T01:44:36.987Z,1.10
2019-01-09T01:47:13.185Z,1.10
2019-01-09T01:49:53.513Z,1.10
2019-01-09T01:52:23.635Z,1.00
2019-01-09T01:55:08.511Z,1.10
2019-01-09T01:57:51.098Z,1.00
2019-01-09T02:00:39.222Z,1.10
2019-01-09T02:03:35.408Z,1.10
2019-01-09T02:06:05.653Z,1.10
2019-01-09T02:08:50.969Z,1.10
2019-01-09T02:11:24.049Z,1.10
2019-01-09T02:14:15.295Z,1.20
2019-01-09T02:17:19.891Z,1.20
2019-01-09T02:20:06.521Z,1.20
2019-01-09T02:22:36.620Z,1.20
2019-01-09T02:25:23.446Z,1.20
2019-01-09T02:27:56.472Z,1.30
2019-01-09T02:30:41.719Z,1.30
2019-01-09T02:33:08.303Z,1.40
2019-01-09T02:35:34.877Z,1.40
2019-01-09T02:38:01.367Z,1.40
2019-01-09T02:40:27.929Z,1.40
2019-01-09T02:42:54.923Z,1.40
2019-01-09T02:45:21.531Z,1.40
2019-01-09T02:47:48.088Z,1.40
2019-01-09T02:50:14.717Z,1.40
2019-01-09T02:52:41.331Z,1.40
2019-01-09T02:55:07.809Z,1.40
2019-01-09T02:57:34.366Z,1.40
2019-01-09T03:00:00.991Z,1.40
2019-01-09T03:02:27.492Z,1.50
2019-01-09T03:04:54.303Z,1.40
2019-01-09T03:07:20.739Z,1.50
2019-01-09T03:09:48.018Z,1.50
2019-01-09T03:12:14.626Z,1.50
2019-01-09T03:14:41.224Z,1.50
2019-01-09T03:17:07.833Z,1.50
2019-01-09T03:19:34.377Z,1.50
2019-01-09T03:22:00.863Z,1.50
2019-01-09T03:24:27.354Z,1.50
2019-01-09T03:26:54.085Z,1.50
2019-01-09T03:29:20.698Z,1.50
2019-01-09T03:31:47.433Z,1.50
2019-01-09T03:34:13.919Z,1.40
2019-01-09T03:36:40.333Z,1.50
2019-01-09T03:39:06.828Z,1.50
2019-01-09T03:41:33.309Z,1.50
2019-01-09T03:43:59.818Z,1.50
2019-01-09T03:46:26.394Z,1.40
2019-01-09T03:48:53.006Z,1.40
2019-01-09T03:51:19.687Z,1.40
2019-01-09T03:53:46.249Z,1.50
2019-01-09T03:56:12.747Z,1.50
2019-01-09T03:58:39.358Z,1.50
2019-01-09T04:01:05.982Z,1.40
2019-01-09T04:03:32.521Z,1.40
2019-01-09T04:05:59.110Z,1.40
2019-01-09T04:08:25.776Z,1.40
2019-01-09T04:10:52.409Z,1.40
2019-01-09T04:13:19.041Z,1.40
2019-01-09T04:15:45.917Z,1.40
2019-01-09T04:18:12.445Z,1.40
2019-01-09T04:20:42.542Z,1.40
2019-01-09T04:23:09.158Z,1.50
2019-01-09T04:25:35.707Z,1.40
2019-01-09T04:28:02.190Z,1.40
2019-01-09T04:30:28.759Z,1.40
2019-01-09T04:32:56.134Z,1.40
2019-01-09T04:35:22.779Z,1.40
2019-01-09T04:37:49.672Z,1.50
2019-01-09T04:40:18.297Z,1.40
2019-01-09T04:42:44.742Z,1.40
2019-01-09T04:45:11.288Z,1.40
2019-01-09T04:47:37.948Z,1.40
2019-01-09T04:50:04.826Z,1.50
2019-01-09T04:52:31.388Z,1.50
2019-01-09T04:54:57.909Z,1.50
2019-01-09T04:57:24.467Z,1.50
2019-01-09T04:59:50.850Z,1.50
2019-01-09T05:02:17.347Z,1.50
2019-01-09T05:04:43.981Z,1.50
2019-01-09T05:07:10.485Z,1.50
2019-01-09T05:09:37.006Z,1.50
2019-01-09T05:12:03.526Z,1.50
2019-01-09T05:14:30.037Z,1.50
2019-01-09T05:16:56.806Z,1.50
2019-01-09T05:19:23.378Z,1.40
2019-01-09T05:21:50.036Z,1.50
2019-01-09T05:24:16.590Z,1.50
2019-01-09T05:26:43.231Z,1.50
2019-01-09T05:29:09.825Z,1.50
2019-01-09T05:31:36.427Z,1.40
2019-01-09T05:34:03.020Z,1.40
2019-01-09T05:36:29.644Z,1.40
2019-01-09T05:38:56.286Z,1.50
2019-01-09T05:41:22.833Z,1.50
2019-01-09T05:43:49.301Z,1.50
2019-01-09T05:46:15.840Z,1.60
2019-01-09T05:48:42.467Z,1.60
2019-01-09T05:51:09.057Z,1.60
2019-01-09T05:53:35.686Z,1.60
2019-01-09T05:56:02.177Z,1.60
2019-01-09T05:58:28.686Z,1.60
2019-01-09T06:00:55.335Z,1.70
2019-01-09T06:03:22.138Z,1.70
2019-01-09T06:05:48.671Z,1.70
2019-01-09T06:08:16.977Z,1.60
2019-01-09T06:10:43.439Z,1.60
2019-01-09T06:13:10.006Z,1.60
2019-01-09T06:15:36.427Z,1.70
2019-01-09T06:18:03.070Z,1.60
2019-01-09T06:20:29.569Z,1.60
2019-01-09T06:22:56.180Z,1.70
2019-01-09T06:25:22.596Z,1.60
2019-01-09T06:27:49.149Z,1.70
2019-01-09T06:30:15.657Z,1.70
2019-01-09T06:32:42.116Z,1.70
2019-01-09T06:35:10.096Z,1.70
2019-01-09T06:37:36.658Z,1.70
2019-01-09T06:40:04.847Z,1.70
2019-01-09T06:42:31.254Z,1.70
2019-01-09T06:44:57.865Z,1.70
2019-01-09T06:47:24.365Z,1.60
2019-01-09T06:49:51.868Z,1.60
2019-01-09T06:52:18.544Z,1.60
2019-01-09T06:54:45.216Z,1.50
2019-01-09T06:57:15.398Z,1.60
2019-01-09T06:59:42.295Z,1.50
2019-01-09T07:02:08.802Z,1.50
2019-01-09T07:04:35.317Z,1.60
2019-01-09T07:07:01.938Z,1.60
2019-01-09T07:09:28.509Z,1.60
2019-01-09T07:11:55.213Z,1.60
2019-01-09T07:14:21.729Z,1.60
2019-01-09T07:16:48.322Z,1.60
2019-01-09T07:19:14.834Z,1.70
2019-01-09T07:21:45.720Z,1.70
2019-01-09T07:24:09.753Z,1.70
2019-01-09T07:26:36.276Z,1.70
2019-01-09T07:29:02.894Z,1.60
2019-01-09T07:31:29.410Z,1.50
2019-01-09T07:33:56.154Z,1.40
2019-01-09T07:36:22.678Z,1.40
2019-01-09T07:38:49.159Z,1.40
2019-01-09T07:41:15.680Z,1.40
2019-01-09T07:43:42.362Z,1.40
2019-01-09T07:46:09.012Z,1.30
2019-01-09T07:48:35.454Z,1.20
2019-01-09T07:51:02.141Z,1.30
2019-01-09T07:53:28.716Z,1.30
2019-01-09T07:55:55.277Z,1.40
2019-01-09T07:58:21.870Z,1.40
2019-01-09T08:00:48.336Z,1.40
2019-01-09T08:03:14.975Z,1.40
2019-01-09T08:05:41.594Z,1.40
2019-01-09T08:08:08.134Z,1.50
2019-01-09T08:10:34.753Z,1.50
2019-01-09T08:13:01.250Z,1.50
2019-01-09T08:15:27.840Z,1.50
2019-01-09T08:17:54.444Z,1.50
2019-01-09T08:20:21.070Z,1.40
2019-01-09T08:22:47.640Z,1.40
2019-01-09T08:25:14.290Z,1.50
2019-01-09T08:27:40.918Z,1.50
2019-01-09T08:30:09.160Z,1.50
2019-01-09T08:32:35.776Z,1.50
2019-01-09T08:35:02.365Z,1.60
2019-01-09T08:37:28.842Z,1.60
2019-01-09T08:39:55.511Z,1.60
2019-01-09T08:42:22.386Z,1.70
2019-01-09T08:44:49.019Z,1.70
2019-01-09T08:47:15.538Z,1.70
2019-01-09T08:49:42.149Z,1.80
2019-01-09T08:52:08.766Z,1.80
2019-01-09T08:54:35.386Z,1.80
2019-01-09T08:57:01.894Z,1.70
2019-01-09T08:59:28.383Z,1.80
2019-01-09T09:01:54.867Z,1.70
2019-01-09T09:04:21.450Z,1.80
2019-01-09T09:06:48.047Z,1.80
2019-01-09T09:09:16.052Z,1.80
2019-01-09T09:11:42.539Z,1.70
2019-01-09T09:14:09.147Z,1.70
2019-01-09T09:16:36.751Z,1.70
2019-01-09T09:19:03.804Z,1.90
2019-01-09T09:21:30.306Z,1.80
2019-01-09T09:23:57.166Z,1.90
2019-01-09T09:26:23.678Z,1.80
2019-01-09T09:28:50.189Z,1.80
2019-01-09T09:31:16.722Z,1.70
2019-01-09T09:33:43.339Z,1.70
2019-01-09T09:36:09.974Z,1.70
2019-01-09T09:38:36.505Z,1.80
2019-01-09T09:41:03.330Z,1.80
2019-01-09T09:43:30.168Z,1.70
2019-01-09T09:45:56.910Z,1.70
2019-01-09T09:48:23.392Z,1.70
2019-01-09T09:50:50.023Z,1.70
2019-01-09T09:53:16.508Z,1.70
2019-01-09T09:55:43.025Z,1.70
2019-01-09T09:58:09.659Z,1.70
2019-01-09T10:00:36.185Z,1.70
2019-01-09T10:03:02.826Z,1.70
2019-01-09T10:05:31.239Z,1.90
2019-01-09T10:07:57.979Z,1.90
2019-01-09T10:10:24.494Z,2.00
2019-01-09T10:12:51.186Z,1.90
2019-01-09T10:15:17.724Z,1.90
2019-01-09T10:17:44.276Z,2.10
2019-01-09T10:20:17.222Z,2.10
2019-01-09T10:22:44.383Z,2.00
2019-01-09T10:25:10.899Z,2.00
2019-01-09T10:27:37.459Z,2.00
2019-01-09T10:30:19.122Z,2.10
2019-01-09T10:32:45.685Z,2.10
2019-01-09T10:35:12.526Z,2.00
2019-01-09T10:37:39.274Z,2.00
2019-01-09T10:40:11.736Z,2.00
2019-01-09T10:42:38.434Z,2.10
2019-01-09T10:45:08.021Z,2.10
2019-01-09T10:47:34.517Z,2.10
2019-01-09T10:50:01.275Z,2.20
2019-01-09T10:52:27.881Z,2.10
2019-01-09T10:54:54.762Z,2.00
2019-01-09T10:57:21.359Z,1.90
2019-01-09T10:59:47.833Z,1.90
2019-01-09T11:02:14.522Z,2.00
2019-01-09T11:04:41.149Z,2.00
2019-01-09T11:07:07.691Z,2.00
2019-01-09T11:09:34.298Z,2.00
2019-01-09T11:12:00.825Z,2.10
2019-01-09T11:14:27.378Z,2.10
2019-01-09T11:16:53.890Z,2.10
2019-01-09T11:19:20.430Z,1.90
2019-01-09T11:21:47.185Z,1.90
2019-01-09T11:24:13.873Z,2.00
2019-01-09T11:26:40.350Z,2.10
2019-01-09T11:29:07.145Z,2.10
2019-01-09T11:31:33.663Z,2.20
2019-01-09T11:34:00.115Z,2.20
2019-01-09T11:36:26.724Z,2.30
2019-01-09T11:38:55.928Z,2.30
2019-01-09T11:41:21.742Z,2.30
2019-01-09T11:43:48.309Z,2.20
2019-01-09T11:46:14.837Z,2.20
2019-01-09T11:48:41.767Z,2.30
2019-01-09T11:51:29.609Z,2.30
2019-01-09T11:53:56.301Z,2.30
2019-01-09T11:56:22.724Z,2.40
2019-01-09T11:58:49.263Z,2.30
2019-01-09T12:01:15.873Z,2.20
2019-01-09T12:03:42.357Z,2.30
2019-01-09T12:06:08.966Z,2.30
2019-01-09T12:08:35.816Z,2.40
2019-01-09T12:11:02.663Z,2.30
2019-01-09T12:13:29.281Z,2.30
2019-01-09T12:15:55.806Z,2.30
2019-01-09T12:18:22.566Z,2.30
2019-01-09T12:20:49.122Z,2.40
2019-01-09T12:23:15.802Z,2.20
2019-01-09T12:25:42.317Z,2.20
2019-01-09T12:28:08.802Z,2.10
2019-01-09T12:30:35.442Z,2.20
2019-01-09T12:33:01.967Z,2.20
2019-01-09T12:35:28.616Z,2.30
2019-01-09T12:37:55.226Z,2.30
2019-01-09T12:40:21.884Z,2.40
2019-01-09T12:42:48.363Z,2.40
2019-01-09T12:45:15.934Z,2.40
2019-01-09T12:47:42.401Z,2.30
2019-01-09T12:50:14.148Z,2.20
2019-01-09T12:52:40.616Z,2.20
2019-01-09T12:55:07.219Z,2.20
2019-01-09T12:57:33.948Z,2.30
2019-01-09T13:00:00.617Z,2.20
2019-01-09T13:02:27.144Z,2.30
2019-01-09T13:04:53.650Z,2.20
2019-01-09T13:07:20.339Z,2.10
2019-01-09T13:10:07.830Z,2.10
2019-01-09T13:12:34.442Z,2.20
2019-01-09T13:15:00.959Z,2.20
2019-01-09T13:17:27.574Z,2.20
2019-01-09T13:19:54.625Z,2.20
2019-01-09T13:22:21.161Z,2.10
2019-01-09T13:24:47.766Z,2.10
2019-01-09T13:27:14.364Z,2.10
2019-01-09T13:29:40.952Z,2.00
2019-01-09T13:32:07.465Z,2.10
2019-01-09T13:34:34.102Z,2.00
2019-01-09T13:37:00.734Z,2.00
2019-01-09T13:39:30.808Z,2.20
2019-01-09T13:41:55.498Z,2.20
2019-01-09T13:44:21.998Z,2.20
2019-01-09T13:46:48.606Z,2.20
2019-01-09T13:49:15.106Z,2.10
2019-01-09T13:51:41.744Z,2.10
2019-01-09T13:54:08.402Z,2.10
2019-01-09T13:56:35.041Z,2.10
2019-01-09T13:59:01.659Z,2.00
2019-01-09T14:01:28.022Z,2.10
2019-01-09T14:03:54.639Z,2.00
2019-01-09T14:06:21.194Z,2.00
2019-01-09T14:08:47.996Z,2.00
2019-01-09T14:11:14.771Z,1.90
2019-01-09T14:13:41.307Z,1.90
2019-01-09T14:16:07.824Z,1.90
2019-01-09T14:18:34.409Z,1.80
2019-01-09T14:21:00.948Z,1.80
2019-01-09T14:23:27.660Z,1.90
2019-01-09T14:25:54.402Z,1.80
2019-01-09T14:28:20.894Z,1.80
2019-01-09T14:30:47.470Z,1.70
2019-01-09T14:33:13.970Z,1.80
2019-01-09T14:35:40.452Z,1.80
2019-01-09T14:38:06.984Z,1.80
2019-01-09T14:40:33.623Z,1.80
2019-01-09T14:43:00.295Z,1.80
2019-01-09T14:45:26.931Z,1.80
2019-01-09T14:47:53.516Z,1.80
2019-01-09T14:50:21.827Z,1.70
2019-01-09T14:52:48.420Z,1.60
2019-01-09T14:55:15.208Z,1.70
2019-01-09T14:57:41.806Z,1.60
2019-01-09T15:00:25.909Z,1.50
2019-01-09T15:02:52.697Z,1.50
2019-01-09T15:05:19.181Z,1.50
2019-01-09T15:07:45.735Z,1.40
2019-01-09T15:10:15.473Z,1.40
2019-01-09T15:12:42.125Z,1.30
2019-01-09T15:15:11.958Z,1.30
2019-01-09T15:17:38.921Z,1.40
2019-01-09T15:20:09.135Z,1.30
2019-01-09T15:22:35.907Z,1.50
2019-01-09T15:25:06.146Z,1.50
2019-01-09T15:27:32.684Z,1.60
2019-01-09T15:30:04.009Z,1.60
2019-01-09T15:32:30.539Z,1.60
2019-01-09T15:34:57.031Z,1.60
2019-01-09T15:37:23.627Z,1.60
2019-01-09T15:39:50.245Z,1.50
2019-01-09T15:42:16.747Z,1.60
2019-01-09T15:44:43.313Z,1.60
2019-01-09T15:47:09.856Z,1.60
2019-01-09T15:49:36.495Z,1.60
2019-01-09T15:52:03.166Z,1.60
2019-01-09T15:54:29.663Z,1.60
2019-01-09T15:56:56.239Z,1.50
2019-01-09T15:59:22.926Z,1.50
2019-01-09T16:01:49.600Z,1.60
2019-01-09T16:04:16.246Z,1.50
2019-01-09T16:06:42.862Z,1.50
2019-01-09T16:09:09.591Z,1.60
2019-01-09T16:11:36.146Z,1.60
2019-01-09T16:14:03.093Z,1.50
2019-01-09T16:16:29.949Z,1.60
2019-01-09T16:18:57.405Z,1.60
2019-01-09T16:21:23.908Z,1.70
2019-01-09T16:23:50.403Z,1.70
2019-01-09T16:26:17.115Z,1.60
2019-01-09T16:28:43.635Z,1.50
2019-01-09T16:31:20.663Z,1.40
2019-01-09T16:33:48.254Z,1.50
2019-01-09T16:36:14.646Z,1.50
2019-01-09T16:38:41.165Z,1.50
2019-01-09T16:41:07.758Z,1.50
2019-01-09T16:43:34.094Z,1.50
2019-01-09T16:46:00.715Z,1.50
2019-01-09T16:48:27.227Z,1.40
2019-01-09T16:50:53.854Z,1.40
2019-01-09T16:53:20.428Z,1.40
2019-01-09T16:55:46.933Z,1.40
2019-01-09T16:58:13.514Z,1.30
2019-01-09T17:00:42.287Z,1.20
2019-01-09T17:03:09.195Z,1.20
2019-01-09T17:05:36.231Z,1.10
2019-01-09T17:08:03.756Z,1.20
2019-01-09T17:10:32.569Z,1.10
2019-01-09T17:12:59.009Z,1.00
2019-01-09T17:15:25.670Z,1.00
2019-01-09T17:17:52.271Z,1.10
2019-01-09T17:20:27.129Z,1.10
2019-01-09T17:22:53.867Z,1.10
2019-01-09T17:25:20.485Z,1.00
2019-01-09T17:27:47.175Z,1.10
2019-01-09T17:30:30.264Z,1.20
2019-01-09T17:32:56.889Z,1.00
2019-01-09T17:35:23.436Z,1.00
2019-01-09T17:37:49.933Z,0.90
2019-01-09T17:40:22.026Z,0.90
2019-01-09T17:42:49.092Z,0.90
2019-01-09T17:45:15.686Z,0.90
2019-01-09T17:47:42.356Z,0.90
2019-01-09T17:50:21.390Z,0.90
2019-01-09T17:52:47.968Z,0.80
2019-01-09T17:55:14.380Z,0.80
2019-01-09T17:57:40.963Z,0.80
2019-01-09T18:00:13.779Z,0.70
2019-01-09T18:02:40.299Z,0.80
2019-01-09T18:05:06.938Z,0.80
2019-01-09T18:07:33.534Z,0.70
2019-01-09T18:10:00.082Z,0.70
2019-01-09T18:12:26.687Z,0.70
2019-01-09T18:14:53.202Z,0.70
2019-01-09T18:17:19.852Z,0.70
2019-01-09T18:19:46.353Z,0.60
2019-01-09T18:22:12.887Z,0.60
2019-01-09T18:24:39.485Z,0.60
2019-01-09T18:27:06.007Z,0.60
2019-01-09T18:29:32.655Z,0.50
2019-01-09T18:32:17.840Z,0.50
2019-01-09T18:34:44.629Z,0.40
2019-01-09T18:37:21.171Z,0.40
2019-01-09T18:40:00.479Z,0.40
2019-01-09T18:42:50.533Z,0.40
2019-01-09T18:45:32.568Z,0.30
2019-01-09T18:48:36.598Z,0.30
2019-01-09T18:51:28.151Z,0.30
2019-01-09T18:53:54.594Z,0.30
2019-01-09T18:56:21.260Z,0.30
2019-01-09T18:58:47.710Z,0.30
2019-01-09T19:01:14.348Z,0.30
2019-01-09T19:03:41.138Z,0.30
2019-01-09T19:06:07.634Z,0.20
2019-01-09T19:08:34.237Z,0.30
2019-01-09T19:11:07.705Z,0.30
2019-01-09T19:13:29.117Z,0.30
2019-01-09T19:15:55.702Z,0.30
2019-01-09T19:18:22.205Z,0.30
2019-01-09T19:20:48.845Z,0.20
2019-01-09T19:23:15.552Z,0.40
2019-01-09T19:25:42.142Z,0.30
2019-01-09T19:28:08.637Z,0.30
2019-01-09T19:30:35.203Z,0.30
2019-01-09T19:33:01.882Z,0.30
2019-01-09T19:35:28.660Z,0.30
2019-01-09T19:37:55.315Z,0.30
2019-01-09T19:40:21.889Z,0.20
2019-01-09T19:42:48.296Z,0.20
2019-01-09T19:45:14.833Z,0.20
2019-01-09T19:47:41.352Z,0.20
2019-01-09T19:50:19.984Z,0.10
2019-01-09T19:52:46.634Z,0.10
2019-01-09T19:55:13.724Z,0.10
2019-01-09T19:57:40.247Z,0.00
2019-01-09T20:00:10.551Z,0.00
2019-01-09T20:02:37.955Z,0.00
2019-01-09T20:05:04.692Z,0.00
2019-01-09T20:07:31.209Z,0.00
2019-01-09T20:09:57.887Z,0.00
2019-01-09T20:12:24.466Z,0.00
2019-01-09T20:14:51.097Z,0.00
2019-01-09T20:17:17.714Z,0.00
2019-01-09T20:19:44.531Z,0.00
2019-01-09T20:22:11.632Z,0.00
2019-01-09T20:24:38.286Z,-0.10
2019-01-09T20:27:05.127Z,-0.10
2019-01-09T20:29:31.736Z,-0.10
2019-01-09T20:31:58.231Z,-0.10
2019-01-09T20:34:25.720Z,-0.10
2019-01-09T20:36:52.303Z,-0.10
2019-01-09T20:39:18.871Z,-0.10
2019-01-09T20:41:45.900Z,-0.10
2019-01-09T20:44:12.975Z,-0.10
2019-01-09T20:46:39.476Z,-0.20
2019-01-09T20:49:06.227Z,-0.30
2019-01-09T20:51:32.796Z,-0.20
2019-01-09T20:53:59.440Z,-0.20
2019-01-09T20:56:25.925Z,-0.20
2019-01-09T20:58:52.452Z,-0.30
2019-01-09T21:01:18.972Z,-0.20
2019-01-09T21:03:45.506Z,-0.20
2019-01-09T21:06:11.998Z,-0.20
2019-01-09T21:08:38.477Z,-0.20
2019-01-09T21:11:05.128Z,-0.30
2019-01-09T21:13:32.084Z,-0.30
2019-01-09T21:15:58.713Z,-0.20
2019-01-09T21:18:25.357Z,-0.20
2019-01-09T21:20:51.865Z,-0.30
2019-01-09T21:23:18.413Z,-0.30
2019-01-09T21:25:44.951Z,-0.30
2019-01-09T21:28:11.521Z,-0.40
2019-01-09T21:30:38.040Z,-0.40
2019-01-09T21:33:04.520Z,-0.40
2019-01-09T21:35:31.150Z,-0.40
2019-01-09T21:37:57.711Z,-0.50
2019-01-09T21:40:28.034Z,-0.50
2019-01-09T21:42:54.669Z,-0.50
2019-01-09T21:45:21.637Z,-0.50
2019-01-09T21:47:48.362Z,-0.50
2019-01-09T21:50:18.714Z,-0.50
2019-01-09T21:52:45.744Z,-0.50
2019-01-09T21:55:13.231Z,-0.60
2019-01-09T21:57:39.989Z,-0.60
2019-01-09T22:00:13.312Z,-0.60
2019-01-09T22:02:39.884Z,-0.60
2019-01-09T22:05:06.602Z,-0.60
2019-01-09T22:07:33.123Z,-0.60
2019-01-09T22:09:59.780Z,-0.70
2019-01-09T22:12:26.438Z,-0.70
2019-01-09T22:14:53.161Z,-0.80
2019-01-09T22:17:19.716Z,-0.80
2019-01-09T22:19:46.352Z,-0.80
2019-01-09T22:22:12.978Z,-0.80
2019-01-09T22:24:39.504Z,-0.80
2019-01-09T22:27:06.508Z,-0.80
2019-01-09T22:29:32.968Z,-0.70
2019-01-09T22:31:59.552Z,-0.80
2019-01-09T22:34:26.203Z,-0.70
2019-01-09T22:36:52.898Z,-0.80
2019-01-09T22:39:19.672Z,-0.80
2019-01-09T22:41:46.195Z,-0.80
2019-01-09T22:44:12.745Z,-0.80
2019-01-09T22:46:39.544Z,-0.80
2019-01-09T22:49:06.152Z,-0.80
2019-01-09T22:51:32.514Z,-0.80
2019-01-09T22:53:58.911Z,-0.80
2019-01-09T22:56:25.523Z,-0.80
2019-01-09T22:58:52.145Z,-0.80
2019-01-09T23:01:19.606Z,-0.80
2019-01-09T23:03:46.222Z,-0.90
2019-01-09T23:06:13.835Z,-0.90
2019-01-09T23:08:40.349Z,-0.90
2019-01-09T23:11:06.830Z,-0.90
2019-01-09T23:13:33.401Z,-0.90
2019-01-09T23:16:00.088Z,-0.90
2019-01-09T23:18:26.511Z,-1.00
2019-01-09T23:20:53.017Z,-0.90
2019-01-09T23:23:19.685Z,-0.90
2019-01-09T23:25:46.287Z,-0.90
2019-01-09T23:28:12.867Z,-0.90
2019-01-09T23:30:39.558Z,-0.90
2019-01-09T23:33:06.135Z,-1.00
2019-01-09T23:35:32.837Z,-1.00
2019-01-09T23:37:59.365Z,-1.00
2019-01-09T23:40:25.975Z,-1.00
2019-01-09T23:42:52.436Z,-1.00
2019-01-09T23:45:19.179Z,-1.00
2019-01-09T23:47:45.705Z,-1.10
2019-01-09T23:50:12.548Z,-1.10
2019-01-09T23:52:41.256Z,-1.20
2019-01-09T23:55:11.981Z,-1.20
2019-01-09T23:57:38.695Z,-1.20
